createdAt,value
2023-03-06T00:01:08.820Z,13.60
2023-03-06T00:03:35.922Z,17.10
2023-03-06T00:06:03.091Z,12.98
2023-03-06T00:08:30.112Z,11.25
2023-03-06T00:10:58.020Z,12.82
2023-03-06T00:13:26.657Z,11.80
2023-03-06T00:15:53.671Z,16.90
2023-03-06T00:18:20.510Z,11.65
2023-03-06T00:20:47.379Z,15.80
2023-03-06T00:23:14.287Z,11.50
2023-03-06T00:25:45.554Z,13.20
2023-03-06T00:28:15.677Z,12.93
2023-03-06T00:30:43.737Z,11.95
2023-03-06T00:33:11.202Z,13.98
2023-03-06T00:35:42.616Z,11.48
2023-03-06T00:38:12.437Z,10.23
2023-03-06T00:40:39.351Z,13.10
2023-03-06T00:43:06.207Z,12.88
2023-03-06T00:45:33.292Z,12.55
2023-03-06T00:48:00.153Z,9.45
2023-03-06T00:50:27.494Z,9.88
2023-03-06T00:52:54.688Z,11.32
2023-03-06T00:55:21.533Z,12.55
2023-03-06T00:57:48.786Z,12.00
2023-03-06T01:00:19.029Z,13.10
2023-03-06T01:02:45.803Z,12.43
2023-03-06T01:05:14.316Z,12.02
2023-03-06T01:07:41.216Z,10.43
2023-03-06T01:10:09.802Z,12.25
2023-03-06T01:12:36.646Z,12.10
2023-03-06T01:15:04.792Z,11.57
2023-03-06T01:17:31.640Z,13.63
2023-03-06T01:19:58.874Z,12.73
2023-03-06T01:22:25.762Z,9.15
2023-03-06T01:24:52.554Z,14.75
2023-03-06T01:27:19.370Z,13.05
2023-03-06T01:29:46.211Z,11.05
2023-03-06T01:32:13.236Z,10.73
2023-03-06T01:34:40.029Z,11.57
2023-03-06T01:37:06.908Z,13.63
2023-03-06T01:39:33.748Z,13.45
2023-03-06T01:42:00.601Z,14.82
2023-03-06T01:44:27.698Z,12.27
2023-03-06T01:46:54.543Z,15.55
2023-03-06T01:49:23.814Z,10.35
2023-03-06T01:52:10.490Z,11.13
2023-03-06T01:54:46.475Z,12.15
2023-03-06T01:57:20.940Z,14.63
2023-03-06T01:59:53.982Z,14.88
2023-03-06T02:02:22.113Z,14.40
2023-03-06T02:04:49.175Z,14.40
2023-03-06T02:07:20.414Z,12.68
2023-03-06T02:09:47.714Z,12.43
2023-03-06T02:12:20.546Z,10.82
2023-03-06T02:14:49.082Z,11.10
2023-03-06T02:17:21.187Z,13.88
2023-03-06T02:20:41.851Z,11.05
2023-03-06T02:23:14.976Z,13.70
2023-03-06T02:25:46.961Z,14.82
2023-03-06T02:28:19.287Z,12.15
2023-03-06T02:30:49.430Z,13.95
2023-03-06T02:33:20.148Z,12.95
2023-03-06T02:36:10.592Z,13.27
2023-03-06T02:38:46.521Z,12.30
2023-03-06T02:41:13.584Z,12.07
2023-03-06T02:43:45.374Z,13.55
2023-03-06T02:46:12.405Z,12.10
2023-03-06T02:48:39.283Z,10.13
2023-03-06T02:51:06.603Z,10.75
2023-03-06T02:53:33.527Z,10.65
2023-03-06T02:56:00.395Z,12.88
2023-03-06T02:58:27.208Z,13.98
2023-03-06T03:00:54.047Z,11.65
2023-03-06T03:03:20.941Z,11.38
2023-03-06T03:05:47.748Z,11.02
2023-03-06T03:08:14.635Z,9.60
2023-03-06T03:10:41.561Z,15.27
2023-03-06T03:13:08.418Z,13.30
2023-03-06T03:15:35.334Z,14.05
2023-03-06T03:18:02.201Z,13.45
2023-03-06T03:20:29.199Z,12.77
2023-03-06T03:22:56.530Z,12.93
2023-03-06T03:25:25.900Z,12.32
2023-03-06T03:27:52.903Z,11.68
2023-03-06T03:30:20.137Z,10.80
2023-03-06T03:32:47.191Z,10.43
2023-03-06T03:35:20.214Z,10.10
2023-03-06T03:37:47.059Z,15.02
2023-03-06T03:40:13.961Z,12.93
2023-03-06T03:42:40.840Z,11.13
2023-03-06T03:45:08.439Z,13.32
2023-03-06T03:47:35.352Z,11.77
2023-03-06T03:50:02.232Z,19.05
2023-03-06T03:52:29.141Z,14.88
2023-03-06T03:54:56.142Z,14.25
2023-03-06T03:57:23.078Z,18.23
2023-03-06T03:59:49.928Z,13.90
2023-03-06T04:02:17.091Z,13.93
2023-03-06T04:04:43.943Z,14.13
2023-03-06T04:07:10.846Z,11.88
2023-03-06T04:09:37.777Z,11.95
2023-03-06T04:12:05.570Z,12.80
2023-03-06T04:14:32.448Z,10.88
2023-03-06T04:16:59.526Z,13.25
2023-03-06T04:19:26.373Z,11.02
2023-03-06T04:21:53.169Z,11.07
2023-03-06T04:24:19.955Z,11.68
2023-03-06T04:26:46.750Z,17.42
2023-03-06T04:29:13.611Z,14.45
2023-03-06T04:31:40.568Z,10.75
2023-03-06T04:34:07.445Z,13.05
2023-03-06T04:36:35.313Z,13.32
2023-03-06T04:39:03.761Z,10.88
2023-03-06T04:41:30.747Z,13.57
2023-03-06T04:43:57.794Z,11.23
2023-03-06T04:46:25.115Z,12.57
2023-03-06T04:48:51.990Z,10.77
2023-03-06T04:51:18.880Z,8.95
2023-03-06T04:53:45.818Z,11.95
2023-03-06T04:56:12.693Z,10.93
2023-03-06T04:58:39.579Z,9.38
2023-03-06T05:01:06.705Z,11.50
2023-03-06T05:03:33.557Z,12.40
2023-03-06T05:06:01.709Z,12.20
2023-03-06T05:08:28.646Z,13.77
2023-03-06T05:10:59.466Z,13.25
2023-03-06T05:13:27.625Z,11.30
2023-03-06T05:15:54.869Z,11.57
2023-03-06T05:18:21.855Z,11.93
2023-03-06T05:20:48.769Z,7.78
2023-03-06T05:23:15.686Z,9.07
2023-03-06T05:25:42.728Z,11.13
2023-03-06T05:28:09.609Z,10.80
2023-03-06T05:30:36.771Z,10.43
2023-03-06T05:33:03.734Z,11.27
2023-03-06T05:35:30.777Z,11.73
2023-03-06T05:37:57.812Z,12.05
2023-03-06T05:40:24.884Z,11.32
2023-03-06T05:42:51.755Z,12.50
2023-03-06T05:45:18.867Z,32.03
2023-03-06T05:47:46.247Z,11.00
2023-03-06T05:50:14.770Z,10.05
2023-03-06T05:52:41.975Z,10.45
2023-03-06T05:55:12.609Z,12.95
2023-03-06T05:57:39.787Z,25.15
2023-03-06T06:00:07.876Z,13.73
2023-03-06T06:02:34.785Z,14.45
2023-03-06T06:05:03.524Z,13.10
2023-03-06T06:07:34.817Z,12.27
2023-03-06T06:10:03.649Z,24.92
2023-03-06T06:12:31.030Z,10.15
2023-03-06T06:14:58.014Z,11.27
2023-03-06T06:17:25.109Z,9.73
2023-03-06T06:19:51.953Z,14.88
2023-03-06T06:22:18.772Z,12.40
2023-03-06T06:24:45.543Z,14.52
2023-03-06T06:27:12.456Z,10.13
2023-03-06T06:29:39.254Z,10.95
2023-03-06T06:32:06.573Z,12.40
2023-03-06T06:34:34.206Z,41.58
2023-03-06T06:37:01.062Z,16.17
2023-03-06T06:39:28.946Z,33.75
2023-03-06T06:42:09.983Z,14.20
2023-03-06T06:44:42.964Z,22.80
2023-03-06T06:47:26.261Z,11.50
2023-03-06T06:49:55.794Z,14.10
2023-03-06T06:52:24.459Z,17.10
2023-03-06T06:54:52.217Z,15.77
2023-03-06T06:57:19.170Z,9.02
2023-03-06T06:59:46.045Z,14.60
2023-03-06T07:02:17.631Z,12.48
2023-03-06T07:05:02.061Z,14.10
2023-03-06T07:07:33.012Z,17.85
2023-03-06T07:09:59.912Z,12.15
2023-03-06T07:12:26.859Z,17.17
2023-03-06T07:14:53.712Z,14.38
2023-03-06T07:17:20.605Z,16.92
2023-03-06T07:19:48.225Z,13.48
2023-03-06T07:22:15.339Z,13.23
2023-03-06T07:24:42.283Z,17.17
2023-03-06T07:27:09.081Z,11.23
2023-03-06T07:29:36.167Z,14.30
2023-03-06T07:32:03.079Z,13.15
2023-03-06T07:34:30.113Z,11.70
2023-03-06T07:36:56.937Z,14.40
2023-03-06T07:39:23.886Z,14.02
2023-03-06T07:41:52.161Z,16.85
2023-03-06T07:44:19.157Z,13.38
2023-03-06T07:46:46.238Z,22.63
2023-03-06T07:49:13.112Z,15.57
2023-03-06T07:51:40.444Z,17.83
2023-03-06T07:54:07.331Z,15.00
2023-03-06T07:56:35.056Z,15.55
2023-03-06T07:59:02.331Z,11.70
2023-03-06T08:01:29.333Z,19.70
2023-03-06T08:03:56.277Z,16.95
2023-03-06T08:06:26.842Z,17.48
2023-03-06T08:08:56.792Z,15.82
2023-03-06T08:11:27.774Z,16.65
2023-03-06T08:13:56.642Z,51.38
2023-03-06T08:16:28.258Z,24.20
2023-03-06T08:18:56.361Z,14.88
2023-03-06T08:21:27.039Z,12.77
2023-03-06T08:23:54.500Z,27.75
2023-03-06T08:26:29.439Z,15.00
2023-03-06T08:28:59.237Z,12.40
2023-03-06T08:31:39.185Z,9.90
2023-03-06T08:34:10.912Z,13.15
2023-03-06T08:36:38.190Z,16.38
2023-03-06T08:39:05.826Z,14.35
2023-03-06T08:41:33.451Z,16.88
2023-03-06T08:44:00.365Z,13.57
2023-03-06T08:46:30.207Z,15.77
2023-03-06T08:48:57.900Z,10.90
2023-03-06T08:51:25.241Z,12.40
2023-03-06T08:53:52.949Z,11.18
2023-03-06T08:56:33.461Z,13.85
2023-03-06T08:59:04.525Z,12.55
2023-03-06T09:01:37.767Z,12.85
2023-03-06T09:04:11.696Z,12.90
2023-03-06T09:06:42.731Z,10.02
2023-03-06T09:09:09.946Z,6.47
2023-03-06T09:11:37.376Z,9.90
2023-03-06T09:14:05.628Z,10.65
2023-03-06T09:16:33.339Z,7.70
2023-03-06T09:19:00.272Z,7.03
2023-03-06T09:21:28.529Z,11.07
2023-03-06T09:23:55.554Z,16.25
2023-03-06T09:26:28.006Z,23.42
2023-03-06T09:28:59.831Z,5.43
2023-03-06T09:31:26.764Z,7.57
2023-03-06T09:33:53.666Z,10.10
2023-03-06T09:36:22.644Z,12.50
2023-03-06T09:38:50.639Z,5.82
2023-03-06T09:41:37.873Z,13.45
2023-03-06T09:44:41.056Z,27.23
2023-03-06T09:47:43.311Z,10.45
2023-03-06T09:50:43.774Z,22.83
2023-03-06T09:53:41.519Z,11.48
2023-03-06T09:56:23.552Z,9.27
2023-03-06T09:59:13.430Z,7.82
2023-03-06T10:02:01.329Z,4.65
2023-03-06T10:04:50.799Z,4.00
2023-03-06T10:07:49.479Z,13.07
2023-03-06T10:10:24.570Z,7.55
2023-03-06T10:13:40.693Z,5.72
2023-03-06T10:16:29.931Z,4.30
2023-03-06T10:19:02.343Z,5.28
2023-03-06T10:21:46.400Z,7.07
2023-03-06T10:24:41.796Z,7.93
2023-03-06T10:27:23.449Z,5.47
2023-03-06T10:30:17.115Z,5.53
2023-03-06T10:33:15.531Z,5.20
2023-03-06T10:35:55.541Z,2.85
2023-03-06T10:38:32.340Z,6.72
2023-03-06T10:41:10.970Z,8.27
2023-03-06T10:43:45.096Z,9.18
2023-03-06T10:46:26.389Z,5.10
2023-03-06T10:49:14.091Z,4.88
2023-03-06T10:52:07.557Z,4.28
2023-03-06T10:57:26.244Z,6.28
2023-03-06T10:59:59.850Z,7.40
2023-03-06T11:02:33.247Z,4.68
2023-03-06T11:05:03.444Z,5.35
2023-03-06T11:07:35.982Z,6.20
2023-03-06T11:10:20.181Z,4.35
2023-03-06T11:13:23.582Z,4.20
2023-03-06T11:16:07.280Z,12.63
2023-03-06T11:18:42.718Z,4.47
2023-03-06T11:21:37.410Z,5.18
2023-03-06T11:24:18.245Z,4.80
2023-03-06T11:26:56.612Z,8.77
2023-03-06T11:29:39.150Z,4.82
2023-03-06T11:32:14.828Z,4.93
2023-03-06T11:34:57.566Z,4.70
2023-03-06T11:38:00.803Z,6.43
2023-03-06T11:40:40.009Z,6.85
2023-03-06T11:43:49.103Z,16.83
2023-03-06T11:46:25.328Z,8.27
2023-03-06T11:49:14.053Z,6.45
2023-03-06T11:51:48.317Z,9.35
2023-03-06T11:54:15.190Z,9.35
2023-03-06T11:57:09.938Z,4.88
2023-03-06T11:59:58.289Z,9.10
2023-03-06T12:03:09.297Z,17.52
2023-03-06T12:06:05.598Z,7.57
2023-03-06T12:09:15.819Z,34.55
2023-03-06T12:12:00.687Z,13.88
2023-03-06T12:15:07.891Z,7.15
2023-03-06T12:18:15.612Z,6.57
2023-03-06T12:21:15.322Z,6.55
2023-03-06T12:23:42.074Z,5.07
2023-03-06T12:26:27.723Z,6.53
2023-03-06T12:29:16.348Z,8.32
2023-03-06T12:32:23.365Z,7.80
2023-03-06T12:35:05.825Z,12.88
2023-03-06T12:38:20.457Z,7.85
2023-03-06T12:41:02.484Z,7.13
2023-03-06T12:43:54.336Z,10.77
2023-03-06T12:46:23.840Z,5.50
2023-03-06T12:49:31.987Z,6.10
2023-03-06T12:52:02.123Z,8.82
2023-03-06T12:54:36.142Z,8.70
2023-03-06T12:57:06.612Z,6.68
2023-03-06T12:59:47.251Z,8.60
2023-03-06T13:02:32.535Z,4.57
2023-03-06T13:05:27.067Z,6.82
2023-03-06T13:08:20.686Z,5.40
2023-03-06T13:11:24.666Z,8.98
2023-03-06T13:13:51.664Z,7.03
2023-03-06T13:16:18.663Z,9.85
2023-03-06T13:18:56.788Z,8.98
2023-03-06T13:21:41.718Z,5.30
2023-03-06T13:24:22.964Z,4.32
2023-03-06T13:26:55.768Z,5.80
2023-03-06T13:29:37.762Z,5.65
2023-03-06T13:32:16.188Z,6.25
2023-03-06T13:34:51.637Z,5.20
2023-03-06T13:37:23.352Z,7.07
2023-03-06T13:39:56.800Z,5.45
2023-03-06T13:42:36.415Z,6.95
2023-03-06T13:45:18.282Z,5.43
2023-03-06T13:48:15.553Z,7.88
2023-03-06T13:50:47.252Z,9.23
2023-03-06T13:54:12.308Z,15.80
2023-03-06T13:57:04.286Z,15.32
2023-03-06T14:00:08.347Z,13.65
2023-03-06T14:03:00.788Z,19.88
2023-03-06T14:05:50.847Z,14.57
2023-03-06T14:08:24.716Z,13.15
2023-03-06T14:11:27.442Z,19.15
2023-03-06T14:13:56.859Z,9.13
2023-03-06T14:16:32.658Z,5.78
2023-03-06T14:19:04.707Z,6.63
2023-03-06T14:21:48.924Z,6.38
2023-03-06T14:24:20.060Z,7.55
2023-03-06T14:26:51.247Z,8.00
2023-03-06T14:29:24.788Z,7.47
2023-03-06T14:31:55.886Z,8.23
2023-03-06T14:34:41.220Z,14.43
2023-03-06T14:37:22.705Z,14.27
2023-03-06T14:39:49.928Z,12.93
2023-03-06T14:42:29.041Z,12.60
2023-03-06T14:45:15.831Z,22.55
2023-03-06T14:47:44.001Z,47.95
2023-03-06T14:50:29.938Z,19.58
2023-03-06T14:53:16.921Z,8.50
2023-03-06T14:55:58.019Z,33.53
2023-03-06T14:58:49.932Z,16.73
2023-03-06T15:01:23.349Z,44.55
2023-03-06T15:03:54.883Z,15.65
2023-03-06T15:06:38.230Z,16.48
2023-03-06T15:09:14.478Z,12.30
2023-03-06T15:12:00.516Z,24.52
2023-03-06T15:14:42.925Z,30.40
2023-03-06T15:17:18.815Z,24.17
2023-03-06T15:19:48.592Z,16.65
2023-03-06T15:22:43.713Z,13.73
2023-03-06T15:25:30.539Z,17.85
2023-03-06T15:28:21.987Z,23.75
2023-03-06T15:31:10.685Z,24.00
2023-03-06T15:33:37.902Z,25.75
2023-03-06T15:36:18.220Z,17.70
2023-03-06T15:38:46.984Z,32.35
2023-03-06T15:41:30.325Z,21.40
2023-03-06T15:43:59.581Z,19.65
2023-03-06T15:46:26.659Z,12.65
2023-03-06T15:49:03.198Z,14.70
2023-03-06T15:51:32.584Z,15.07
2023-03-06T15:54:11.337Z,13.52
2023-03-06T15:56:45.597Z,10.77
2023-03-06T15:59:26.088Z,11.82
2023-03-06T16:01:54.474Z,13.00
2023-03-06T16:04:21.399Z,12.77
2023-03-06T16:06:48.327Z,12.32
2023-03-06T16:09:15.377Z,12.30
2023-03-06T16:11:44.888Z,12.40
2023-03-06T16:14:23.774Z,12.02
2023-03-06T16:16:54.653Z,13.70
2023-03-06T16:19:27.170Z,15.55
2023-03-06T16:21:56.376Z,14.75
2023-03-06T16:24:26.087Z,16.23
2023-03-06T16:26:55.133Z,312.25
2023-03-06T16:29:25.425Z,236.07
2023-03-06T16:31:53.915Z,73.53
2023-03-06T16:34:21.093Z,102.18
2023-03-06T16:36:49.402Z,316.77
2023-03-06T16:39:20.607Z,113.45
2023-03-06T16:41:51.572Z,54.30
2023-03-06T16:44:19.359Z,29.10
2023-03-06T16:46:49.144Z,44.58
2023-03-06T16:49:24.572Z,49.97
2023-03-06T16:51:52.769Z,55.95
2023-03-06T16:54:21.853Z,81.82
2023-03-06T16:56:48.841Z,113.97
2023-03-06T16:59:15.798Z,89.32
2023-03-06T17:01:43.366Z,79.88
2023-03-06T17:04:11.485Z,77.95
2023-03-06T17:06:38.960Z,74.03
2023-03-06T17:09:06.623Z,62.45
2023-03-06T17:11:37.146Z,39.72
2023-03-06T17:14:04.456Z,30.80
2023-03-06T17:16:31.311Z,30.67
2023-03-06T17:18:58.671Z,28.77
2023-03-06T17:21:27.124Z,164.55
2023-03-06T17:23:54.064Z,61.95
2023-03-06T17:26:21.056Z,39.17
2023-03-06T17:28:48.556Z,35.13
2023-03-06T17:31:26.512Z,31.05
2023-03-06T17:34:01.691Z,27.35
2023-03-06T17:36:30.785Z,24.85
2023-03-06T17:39:01.787Z,29.58
2023-03-06T17:41:28.922Z,27.27
2023-03-06T17:43:56.650Z,28.10
2023-03-06T17:46:23.856Z,28.38
2023-03-06T17:48:50.758Z,25.75
2023-03-06T17:51:17.614Z,167.02
2023-03-06T17:53:44.572Z,88.78
2023-03-06T17:56:14.138Z,59.20
2023-03-06T17:58:40.982Z,27.13
2023-03-06T18:01:28.379Z,24.35
2023-03-06T18:03:55.298Z,21.95
2023-03-06T18:06:22.960Z,21.23
2023-03-06T18:08:52.743Z,19.60
2023-03-06T18:11:20.575Z,19.67
2023-03-06T18:13:47.534Z,21.98
2023-03-06T18:16:18.426Z,16.55
2023-03-06T18:18:45.884Z,20.33
2023-03-06T18:21:16.133Z,16.38
2023-03-06T18:23:43.334Z,15.80
2023-03-06T18:26:18.539Z,21.52
2023-03-06T18:28:49.310Z,45.05
2023-03-06T18:31:24.611Z,46.78
2023-03-06T18:33:55.338Z,36.80
2023-03-06T18:36:24.656Z,32.50
2023-03-06T18:38:51.894Z,34.63
2023-03-06T18:41:21.353Z,61.17
2023-03-06T18:44:00.290Z,71.45
2023-03-06T18:46:35.998Z,95.93
2023-03-06T18:49:05.837Z,144.98
2023-03-06T18:51:33.897Z,67.70
2023-03-06T18:54:05.741Z,46.08
2023-03-06T18:56:33.983Z,47.45
2023-03-06T18:59:06.798Z,49.20
2023-03-06T19:01:34.472Z,52.28
2023-03-06T19:04:03.480Z,54.83
2023-03-06T19:06:31.205Z,49.92
2023-03-06T19:09:02.194Z,45.22
2023-03-06T19:11:29.712Z,43.78
2023-03-06T19:13:56.651Z,34.40
2023-03-06T19:16:27.285Z,67.90
2023-03-06T19:18:55.654Z,50.10
2023-03-06T19:21:26.868Z,40.58
2023-03-06T19:23:54.828Z,39.97
2023-03-06T19:26:22.181Z,28.38
2023-03-06T19:28:50.088Z,25.27
2023-03-06T19:31:25.162Z,22.95
2023-03-06T19:33:57.359Z,26.92
2023-03-06T19:36:28.741Z,26.23
2023-03-06T19:39:01.447Z,30.55
2023-03-06T19:41:29.412Z,35.55
2023-03-06T19:43:59.943Z,37.95
2023-03-06T19:46:28.018Z,37.47
2023-03-06T19:49:03.355Z,33.47
2023-03-06T19:51:30.437Z,42.40
2023-03-06T19:53:58.231Z,41.40
2023-03-06T19:56:28.337Z,43.75
2023-03-06T19:58:55.369Z,36.72
2023-03-06T20:01:25.198Z,30.23
2023-03-06T20:04:03.012Z,29.48
2023-03-06T20:06:33.671Z,57.85
2023-03-06T20:09:07.735Z,62.45
2023-03-06T20:11:35.197Z,45.22
2023-03-06T20:14:06.744Z,62.92
2023-03-06T20:16:34.750Z,54.13
2023-03-06T20:19:02.246Z,51.05
2023-03-06T20:21:32.163Z,42.78
2023-03-06T20:24:00.875Z,43.25
2023-03-06T20:26:29.464Z,38.13
2023-03-06T20:28:57.970Z,31.80
2023-03-06T20:31:28.527Z,33.88
2023-03-06T20:33:58.592Z,32.63
2023-03-06T20:36:30.466Z,36.40
2023-03-06T20:39:01.003Z,33.72
2023-03-06T20:41:30.301Z,32.22
2023-03-06T20:43:59.867Z,31.23
2023-03-06T20:46:28.017Z,37.47
2023-03-06T20:48:56.442Z,37.25
2023-03-06T20:51:31.598Z,43.80
2023-03-06T20:54:01.493Z,45.15
2023-03-06T20:56:32.761Z,39.90
2023-03-06T20:59:00.274Z,67.88
2023-03-06T21:01:30.179Z,50.70
2023-03-06T21:03:58.518Z,36.00
2023-03-06T21:06:28.261Z,35.83
2023-03-06T21:08:56.813Z,31.77
2023-03-06T21:11:24.164Z,32.63
2023-03-06T21:13:53.419Z,30.65
2023-03-06T21:16:24.303Z,35.60
2023-03-06T21:18:53.826Z,32.38
2023-03-06T21:21:24.680Z,33.88
2023-03-06T21:23:51.974Z,33.85
2023-03-06T21:26:22.793Z,34.80
2023-03-06T21:28:51.597Z,35.53
2023-03-06T21:31:21.749Z,31.50
2023-03-06T21:33:49.750Z,30.90
2023-03-06T21:36:19.549Z,30.73
2023-03-06T21:38:48.653Z,31.05
2023-03-06T21:41:24.651Z,31.20
2023-03-06T21:44:01.142Z,28.52
2023-03-06T21:46:28.538Z,30.10
2023-03-06T21:48:56.795Z,36.72
2023-03-06T21:51:25.835Z,29.10
2023-03-06T21:53:54.425Z,37.28
2023-03-06T21:56:25.366Z,36.42
2023-03-06T21:58:53.123Z,40.22
2023-03-06T22:01:28.921Z,44.95
2023-03-06T22:03:58.254Z,43.17
2023-03-06T22:06:28.077Z,39.85
2023-03-06T22:08:58.289Z,49.75
2023-03-06T22:11:27.087Z,45.17
2023-03-06T22:13:53.988Z,43.17
2023-03-06T22:16:21.021Z,47.78
2023-03-06T22:18:50.456Z,46.78
2023-03-06T22:21:21.012Z,42.80
2023-03-06T22:23:57.641Z,42.33
2023-03-06T22:26:26.421Z,38.40
2023-03-06T22:28:53.511Z,40.95
2023-03-06T22:31:24.897Z,39.63
2023-03-06T22:33:57.780Z,32.47
2023-03-06T22:38:59.091Z,29.90
2023-03-06T22:41:27.260Z,34.17
2023-03-06T22:44:00.043Z,29.05
2023-03-06T22:49:02.222Z,29.65
2023-03-06T22:51:29.783Z,29.52
2023-03-06T22:53:56.998Z,32.40
2023-03-06T22:56:24.508Z,29.13
2023-03-06T22:58:51.423Z,29.25
2023-03-06T23:01:23.078Z,29.48
2023-03-06T23:03:53.266Z,27.85
2023-03-06T23:06:34.054Z,24.33
2023-03-06T23:09:08.683Z,23.90
2023-03-06T23:11:35.687Z,25.35
2023-03-06T23:14:02.637Z,26.70
2023-03-06T23:16:30.184Z,23.73
2023-03-06T23:18:57.070Z,21.67
2023-03-06T23:21:24.857Z,24.42
2023-03-06T23:23:54.451Z,28.08
2023-03-06T23:26:25.193Z,29.63
2023-03-06T23:28:53.006Z,25.73
2023-03-06T23:31:23.970Z,28.33
2023-03-06T23:33:51.197Z,27.60
2023-03-06T23:36:19.093Z,42.50
2023-03-06T23:38:46.424Z,28.42
2023-03-06T23:41:16.638Z,29.70
2023-03-06T23:43:45.049Z,32.55
2023-03-06T23:46:12.378Z,39.13
2023-03-06T23:48:41.616Z,42.88
2023-03-06T23:51:11.982Z,37.13
2023-03-06T23:53:38.938Z,30.55
2023-03-06T23:56:07.425Z,29.90
2023-03-06T23:58:34.429Z,26.02
